Time;durP1;ratioP1;P1;durP2;ratioP2;P2;SDS_P1;SDS_P2;PMS_P1;PMS_P2;Temp;Humidity;BMP_temperature;BMP_pressure;BME280_temperature;BME280_humidity;BME280_pressure;Samples;Min_cycle;Max_cycle;Signal;HPM_P1;HPM_P2
2023/07/01 00:03:07;;;;;;;7.25;2.78;;;;;;;-147.65;100.00;57646.63;10323997;28;20554;-84
2023/07/01 00:08:07;;;;;;;5.65;2.53;;;;;;;-147.65;100.00;57646.63;10307751;28;20034;-84
2023/07/01 00:13:08;;;;;;;6.13;2.95;;;;;;;-147.65;100.00;57646.63;10325074;28;20046;-85
2023/07/01 00:18:08;;;;;;;8.00;2.60;;;;;;;-147.65;100.00;57646.63;10324576;28;20046;-84
2023/07/01 00:23:09;;;;;;;5.28;2.42;;;;;;;-147.65;100.00;57646.63;10324437;28;20049;-84
2023/07/01 00:28:10;;;;;;;5.53;3.58;;;;;;;-147.65;100.00;57646.63;10322873;28;20048;-85
2023/07/01 00:33:10;;;;;;;7.80;3.35;;;;;;;-147.65;100.00;57646.63;10323166;28;20046;-85
2023/07/01 00:38:11;;;;;;;6.50;3.15;;;;;;;-147.65;100.00;57646.63;10322939;28;20121;-83
2023/07/01 00:43:11;;;;;;;6.97;4.18;;;;;;;-147.65;100.00;57646.63;10323029;28;20528;-85
2023/07/01 00:48:32;;;;;;;5.70;3.70;;;;;;;-147.65;100.00;57646.63;10324662;28;20486;-86
2023/07/01 00:53:33;;;;;;;7.85;3.30;;;;;;;-147.65;100.00;57646.63;10320739;28;20046;-85
2023/07/01 00:58:33;;;;;;;6.55;3.53;;;;;;;-147.65;100.00;57646.63;10322948;28;20379;-86
2023/07/01 01:03:53;;;;;;;6.22;4.03;;;;;;;-147.65;100.00;57646.63;10321730;28;20113;-86
2023/07/01 01:08:58;;;;;;;5.03;3.05;;;;;;;-147.65;100.00;57646.63;10308114;28;20049;-87
2023/07/01 01:13:59;;;;;;;8.50;2.95;;;;;;;-147.65;100.00;57646.63;10318691;28;20034;-85
2023/07/01 01:19:00;;;;;;;5.40;2.95;;;;;;;-147.65;100.00;57646.63;10304043;28;20053;-85
2023/07/01 01:24:03;;;;;;;5.15;3.88;;;;;;;-147.65;100.00;57646.63;10321780;28;20506;-85
2023/07/01 01:29:06;;;;;;;6.75;2.78;;;;;;;-147.65;100.00;57646.63;10280979;28;20122;-86
2023/07/01 01:34:06;;;;;;;8.70;3.70;;;;;;;-147.65;100.00;57646.63;10316780;28;20489;-85
2023/07/01 01:39:07;;;;;;;7.13;3.17;;;;;;;-147.65;100.00;57646.63;10320719;28;20038;-85
2023/07/01 01:44:11;;;;;;;5.72;3.88;;;;;;;-147.65;100.00;57646.63;10268578;28;20404;-83
2023/07/01 01:49:12;;;;;;;9.18;3.33;;;;;;;-147.65;100.00;57646.63;10281680;28;20034;-83
2023/07/01 01:54:13;;;;;;;8.05;3.75;;;;;;;-147.65;100.00;57646.63;10315517;28;20120;-83
2023/07/01 01:59:14;;;;;;;5.63;2.55;;;;;;;-147.65;100.00;57646.63;10304344;28;20030;-83
2023/07/01 02:04:14;;;;;;;4.70;2.72;;;;;;;-147.65;100.00;57646.63;10319821;28;20050;-83
2023/07/01 02:09:15;;;;;;;5.05;2.85;;;;;;;-147.65;100.00;57646.63;10320941;28;20039;-82
2023/07/01 02:14:15;;;;;;;13.32;3.08;;;;;;;-147.65;100.00;57646.63;10318180;28;20053;-82
2023/07/01 02:19:16;;;;;;;6.35;3.13;;;;;;;-147.65;100.00;57646.63;10321456;28;20054;-82
2023/07/01 02:24:17;;;;;;;9.25;2.83;;;;;;;-147.65;100.00;57646.63;10297835;28;20034;-82
2023/07/01 02:29:17;;;;;;;5.70;2.67;;;;;;;-147.65;100.00;57646.63;10320972;28;20461;-82
2023/07/01 02:34:24;;;;;;;6.15;2.95;;;;;;;-147.65;100.00;57646.63;10319044;28;20042;-82
2023/07/01 02:39:25;;;;;;;8.15;3.42;;;;;;;-147.65;100.00;57646.63;10302090;28;20053;-81
2023/07/01 02:44:25;;;;;;;5.15;2.92;;;;;;;-147.65;100.00;57646.63;10317992;28;20154;-81
2023/07/01 02:49:26;;;;;;;6.20;2.55;;;;;;;-147.65;100.00;57646.63;10320788;28;20130;-80
2023/07/01 02:54:27;;;;;;;9.65;2.90;;;;;;;-147.65;100.00;57646.63;10320213;28;20034;-82
2023/07/01 02:59:27;;;;;;;5.72;2.80;;;;;;;-147.65;100.00;57646.63;10319403;28;20049;-85
2023/07/01 03:04:28;;;;;;;4.55;2.38;;;;;;;-147.65;100.00;57646.63;10328219;28;20132;-83
2023/07/01 03:09:29;;;;;;;6.72;2.47;;;;;;;-147.65;100.00;57646.63;10327266;28;20043;-78
2023/07/01 03:14:29;;;;;;;6.10;2.10;;;;;;;-147.65;100.00;57646.63;10326687;28;20129;-77
2023/07/01 03:19:30;;;;;;;4.72;3.05;;;;;;;-147.65;100.00;57646.63;10326507;28;20062;-81
2023/07/01 03:24:33;;;;;;;4.93;2.22;;;;;;;-147.65;100.00;57646.63;10272032;28;20070;-81
2023/07/01 03:29:33;;;;;;;8.50;2.38;;;;;;;-147.65;100.00;57646.63;10314776;28;20066;-82
2023/07/01 03:34:35;;;;;;;4.13;3.20;;;;;;;-147.65;100.00;57646.63;10324717;28;20045;-82
2023/07/01 03:39:35;;;;;;;4.93;2.80;;;;;;;-147.65;100.00;57646.63;10322444;28;20433;-82
2023/07/01 03:44:36;;;;;;;6.55;2.75;;;;;;;-147.65;100.00;57646.63;10326364;28;20077;-81
2023/07/01 03:49:36;;;;;;;7.50;2.95;;;;;;;-147.65;100.00;57646.63;10324670;28;20038;-81
2023/07/01 03:54:37;;;;;;;3.95;2.47;;;;;;;-147.65;100.00;57646.63;10307195;28;20077;-80
2023/07/01 03:59:37;;;;;;;4.78;2.65;;;;;;;-147.65;100.00;57646.63;10324946;28;20103;-80
2023/07/01 04:04:38;;;;;;;11.90;5.90;;;;;;;-147.65;100.00;57646.63;10320212;28;20445;-82
2023/07/01 04:09:38;;;;;;;10.73;6.53;;;;;;;-147.65;100.00;57646.63;10304462;28;20088;-80
2023/07/01 04:14:39;;;;;;;11.18;3.55;;;;;;;-147.65;100.00;57646.63;10323803;28;20375;-81
2023/07/01 04:19:39;;;;;;;6.90;3.40;;;;;;;-147.65;100.00;57646.63;10324111;28;20046;-78
2023/07/01 04:24:40;;;;;;;6.28;3.58;;;;;;;-147.65;100.00;57646.63;10324448;28;20039;-78
2023/07/01 04:29:40;;;;;;;6.72;2.85;;;;;;;-147.65;100.00;57646.63;10324717;28;20045;-78
2023/07/01 04:34:41;;;;;;;11.93;3.17;;;;;;;-147.65;100.00;57646.63;10320938;28;20119;-80
2023/07/01 04:39:42;;;;;;;9.43;3.00;;;;;;;-147.65;100.00;57646.63;10323488;28;20390;-79
2023/07/01 04:44:43;;;;;;;4.65;2.55;;;;;;;-147.65;100.00;57646.63;10361478;28;20042;-79
2023/07/01 04:49:43;;;;;;;17.60;12.15;;;;;;;-147.65;100.00;57646.63;10362068;28;20038;-81
2023/07/01 04:54:44;;;;;;;7.07;3.67;;;;;;;-147.65;100.00;57646.63;10364422;28;20041;-77
2023/07/01 04:59:44;;;;;;;6.50;3.67;;;;;;;-147.65;100.00;57646.63;10361958;28;20104;-80
2023/07/01 05:04:45;;;;;;;6.90;2.65;;;;;;;-147.65;100.00;57646.63;10361462;28;20050;-77
2023/07/01 05:09:45;;;;;;;6.22;2.63;;;;;;;-147.65;100.00;57646.63;10386075;28;20083;-79
2023/07/01 05:14:49;;;;;;;5.22;2.40;;;;;;;-147.65;100.00;57646.63;10379015;28;20049;-79
2023/07/01 05:19:49;;;;;;;6.82;2.55;;;;;;;-147.65;100.00;57646.63;10361393;28;20475;-79
2023/07/01 05:24:50;;;;;;;13.70;2.97;;;;;;;-147.65;100.00;57646.63;10354598;28;20176;-80
2023/07/01 05:29:50;;;;;;;6.47;3.75;;;;;;;-147.65;100.00;57646.63;10365077;28;20065;-79
2023/07/01 05:34:51;;;;;;;8.50;2.38;;;;;;;-147.65;100.00;57646.63;10365393;28;20037;-82
2023/07/01 05:39:51;;;;;;;6.50;2.47;;;;;;;-147.65;100.00;57646.63;10353449;28;20041;-80
2023/07/01 05:44:52;;;;;;;5.05;2.78;;;;;;;-147.65;100.00;57646.63;10361343;28;20128;-80
2023/07/01 05:49:52;;;;;;;4.60;2.50;;;;;;;-147.65;100.00;57646.63;10360883;28;20041;-86
2023/07/01 05:54:53;;;;;;;5.75;2.72;;;;;;;-147.65;100.00;57646.63;10374995;28;20051;-86
2023/07/01 05:59:53;;;;;;;7.07;2.00;;;;;;;-147.65;100.00;57646.63;10368091;28;20041;-81
2023/07/01 06:04:54;;;;;;;4.28;2.35;;;;;;;-147.65;100.00;57646.63;10358663;28;20180;-86
2023/07/01 06:09:54;;;;;;;5.55;1.73;;;;;;;-147.65;100.00;57646.63;10358851;28;20121;-79
2023/07/01 06:14:55;;;;;;;5.28;1.90;;;;;;;-147.65;100.00;57646.63;10356730;28;20060;-77
2023/07/01 06:19:55;;;;;;;4.38;1.83;;;;;;;-147.65;100.00;57646.63;10359614;28;20050;-79
2023/07/01 06:24:56;;;;;;;5.10;1.75;;;;;;;-147.65;100.00;57646.63;10358025;28;20092;-78
2023/07/01 06:29:57;;;;;;;3.05;1.80;;;;;;;-147.65;100.00;57646.63;10359871;28;20551;-87
2023/07/01 06:34:57;;;;;;;3.60;1.90;;;;;;;-147.65;100.00;57646.63;10363627;28;20030;-85
2023/07/01 06:39:58;;;;;;;4.00;1.58;;;;;;;-147.65;100.00;57646.63;10374193;28;20041;-82
2023/07/01 06:45:00;;;;;;;3.08;1.60;;;;;;;-147.65;100.00;57646.63;10373719;28;20076;-82
2023/07/01 06:50:01;;;;;;;5.55;1.80;;;;;;;-147.65;100.00;57646.63;10370211;28;20068;-85
2023/07/01 06:55:03;;;;;;;4.78;1.85;;;;;;;-147.65;100.00;57646.63;10370968;28;20034;-82
2023/07/01 07:00:09;;;;;;;2.55;1.50;;;;;;;-147.65;100.00;57646.63;10374007;28;20056;-83
2023/07/01 07:05:09;;;;;;;7.43;2.17;;;;;;;-147.65;100.00;57646.63;10371499;28;20048;-79
2023/07/01 07:10:10;;;;;;;3.08;2.17;;;;;;;-147.65;100.00;57646.63;10369894;28;20049;-81
2023/07/01 07:15:10;;;;;;;4.40;1.80;;;;;;;-147.65;100.00;57646.63;10372513;28;20038;-82
2023/07/01 07:20:11;;;;;;;3.67;2.25;;;;;;;-147.65;100.00;57646.63;10373715;28;20054;-82
2023/07/01 07:25:17;;;;;;;3.50;1.65;;;;;;;-147.65;100.00;57646.63;10371196;28;20400;-82
2023/07/01 07:30:18;;;;;;;3.97;2.50;;;;;;;-147.65;100.00;57646.63;10371721;28;20057;-78
2023/07/01 07:35:19;;;;;;;2.30;1.20;;;;;;;-147.65;100.00;57646.63;10372663;28;20046;-78
2023/07/01 07:40:19;;;;;;;1.73;1.10;;;;;;;-147.65;100.00;57646.63;10372899;28;20121;-82
2023/07/01 07:45:23;;;;;;;3.10;1.58;;;;;;;-147.65;100.00;57646.63;10371823;28;20535;-81
2023/07/01 07:50:23;;;;;;;3.78;1.77;;;;;;;-147.65;100.00;57646.63;10364446;28;20037;-81
2023/07/01 07:55:25;;;;;;;2.25;1.38;;;;;;;-147.65;100.00;57646.63;10363632;28;20054;-81
2023/07/01 08:00:26;;;;;;;3.00;1.83;;;;;;;-147.65;100.00;57646.63;10364185;28;20129;-82
2023/07/01 08:05:28;;;;;;;2.58;1.42;;;;;;;-147.65;100.00;57646.63;10363534;28;20470;-81
2023/07/01 08:10:28;;;;;;;4.10;2.47;;;;;;;-147.65;100.00;57646.63;10360617;28;20057;-80
2023/07/01 08:15:29;;;;;;;10.25;6.70;;;;;;;-147.65;100.00;57646.63;10367182;28;20379;-77
2023/07/01 08:20:29;;;;;;;4.45;2.92;;;;;;;-147.65;100.00;57646.63;10405036;28;20164;-80
2023/07/01 08:25:30;;;;;;;3.50;2.33;;;;;;;-147.65;100.00;57646.63;10363125;28;20123;-80
2023/07/01 08:30:30;;;;;;;3.40;1.63;;;;;;;-147.65;100.00;57646.63;10337203;28;20057;-80
2023/07/01 08:35:31;;;;;;;1.85;1.40;;;;;;;-147.65;100.00;57646.63;10334452;28;20498;-82
2023/07/01 08:40:31;;;;;;;1.25;0.90;;;;;;;-147.65;100.00;57646.63;10344730;28;20052;-80
2023/07/01 08:45:32;;;;;;;3.40;1.17;;;;;;;-147.65;100.00;57646.63;10364876;28;20053;-79
2023/07/01 08:50:52;;;;;;;1.80;0.90;;;;;;;-147.65;100.00;57646.63;10346853;28;20052;-78
2023/07/01 08:55:54;;;;;;;1.42;1.08;;;;;;;-147.65;100.00;57646.63;10360556;28;20497;-82
2023/07/01 09:00:55;;;;;;;2.63;0.70;;;;;;;-147.65;100.00;57646.63;10345218;28;20074;-84
2023/07/01 09:05:56;;;;;;;4.25;2.58;;;;;;;-147.65;100.00;57646.63;10344907;28;20041;-81
2023/07/01 09:10:57;;;;;;;5.05;1.67;;;;;;;-147.65;100.00;57646.63;10362898;28;20140;-78
2023/07/01 09:15:57;;;;;;;1.27;0.70;;;;;;;-147.65;100.00;57646.63;10361812;28;20054;-79
2023/07/01 09:20:58;;;;;;;1.55;0.80;;;;;;;-147.65;100.00;57646.63;10364467;28;20218;-78
2023/07/01 09:26:19;;;;;;;1.10;0.75;;;;;;;-147.65;100.00;57646.63;10362458;28;20465;-78
2023/07/01 09:31:20;;;;;;;1.27;0.65;;;;;;;-147.65;100.00;57646.63;10362464;28;20136;-78
2023/07/01 09:36:23;;;;;;;1.25;0.40;;;;;;;-147.65;100.00;57646.63;10345480;28;20068;-79
2023/07/01 09:41:26;;;;;;;0.82;0.60;;;;;;;-147.65;100.00;57646.63;10360568;28;20137;-79
2023/07/01 09:46:40;;;;;;;1.25;0.90;;;;;;;-147.65;100.00;57646.63;10345142;28;20417;-79
2023/07/01 09:51:45;;;;;;;0.77;0.60;;;;;;;-147.65;100.00;57646.63;10357844;28;20030;-77
2023/07/01 09:56:46;;;;;;;1.27;0.90;;;;;;;-147.65;100.00;57646.63;10344300;28;20045;-79
2023/07/01 10:01:47;;;;;;;25.88;16.30;;;;;;;-147.65;100.00;57646.63;10343760;28;20034;-76
2023/07/01 10:06:47;;;;;;;4.68;2.80;;;;;;;-147.65;100.00;57646.63;10331932;28;20541;-77
2023/07/01 10:11:48;;;;;;;1.42;1.05;;;;;;;-147.65;100.00;57646.63;10359346;28;20149;-79
2023/07/01 10:16:49;;;;;;;0.75;0.40;;;;;;;-147.65;100.00;57646.63;10344399;28;20046;-81
2023/07/01 10:21:49;;;;;;;1.27;0.52;;;;;;;-147.65;100.00;57646.63;10343547;28;20540;-80
2023/07/01 10:26:50;;;;;;;0.85;0.70;;;;;;;-147.65;100.00;57646.63;10359067;28;20053;-80
2023/07/01 10:32:09;;;;;;;1.73;0.85;;;;;;;-147.65;100.00;57646.63;10360010;28;20488;-82
2023/07/01 10:37:10;;;;;;;1.85;1.02;;;;;;;-147.65;100.00;57646.63;10355659;28;20189;-79
2023/07/01 10:42:36;;;;;;;1.90;0.82;;;;;;;-147.65;100.00;57646.63;10359370;28;20034;-79
2023/07/01 10:47:43;;;;;;;2.10;0.65;;;;;;;-147.65;100.00;57646.63;10319408;28;20054;-79
2023/07/01 10:52:58;;;;;;;1.30;0.95;;;;;;;-147.65;100.00;57646.63;10294538;28;20045;-82
2023/07/01 10:58:18;;;;;;;0.90;0.73;;;;;;;-147.65;100.00;57646.63;10338813;28;20057;-88
2023/07/01 11:03:34;;;;;;;3.03;1.35;;;;;;;-147.65;100.00;57646.63;10359050;28;20045;-85
2023/07/01 11:08:47;;;;;;;1.42;1.25;;;;;;;-147.65;100.00;57646.63;10357748;28;20607;-85
2023/07/01 11:14:17;;;;;;;0.88;0.75;;;;;;;-147.65;100.00;57646.63;10330299;28;20046;-87
2023/07/01 11:19:17;;;;;;;3.38;1.90;;;;;;;-147.65;100.00;57646.63;10353720;28;20096;-83
2023/07/01 11:24:21;;;;;;;2.55;1.67;;;;;;;-147.65;100.00;57646.63;10363190;28;20038;-84
2023/07/01 11:29:22;;;;;;;1.98;1.48;;;;;;;-147.65;100.00;57646.63;10360160;28;20581;-87
2023/07/01 11:34:22;;;;;;;2.33;1.38;;;;;;;-147.65;100.00;57646.63;10343601;28;20052;-85
2023/07/01 11:39:23;;;;;;;3.55;1.55;;;;;;;-147.65;100.00;57646.63;10381986;28;20050;-83
2023/07/01 11:44:25;;;;;;;1.85;1.42;;;;;;;-147.65;100.00;57646.63;10394796;28;20052;-85
2023/07/01 11:49:27;;;;;;;;;;;;;;;-147.65;100.00;57646.63;10346484;28;20121;-81
2023/07/01 11:54:39;;;;;;;1.67;1.20;;;;;;;-147.65;100.00;57646.63;10358563;28;19932;-81
2023/07/01 11:59:40;;;;;;;37.67;25.98;;;;;;;-147.65;100.00;57646.63;10359322;28;20042;-83
2023/07/01 12:04:41;;;;;;;7.72;5.07;;;;;;;-147.65;100.00;57646.63;10361441;28;20038;-83
2023/07/01 12:09:44;;;;;;;5.47;3.72;;;;;;;-147.65;100.00;57646.63;10362669;28;20038;-87
2023/07/01 12:14:48;;;;;;;4.18;2.42;;;;;;;-147.65;100.00;57646.63;10362823;28;20042;-86
2023/07/01 12:19:48;;;;;;;2.08;1.40;;;;;;;-147.65;100.00;57646.63;10355120;28;20046;-84
2023/07/01 12:24:58;;;;;;;3.87;1.33;;;;;;;-147.65;100.00;57646.63;10356285;28;20065;-83
2023/07/01 12:30:00;;;;;;;1.85;1.17;;;;;;;-147.65;100.00;57646.63;10360418;28;20034;-90
2023/07/01 12:35:00;;;;;;;2.67;1.37;;;;;;;-147.65;100.00;57646.63;10364821;28;20069;-93
2023/07/01 12:40:03;;;;;;;4.20;1.97;;;;;;;-147.65;100.00;57646.63;10354388;28;20046;-87
2023/07/01 12:45:05;;;;;;;2.92;1.25;;;;;;;-147.65;100.00;57646.63;10353936;28;20482;-83
2023/07/01 12:50:10;;;;;;;1.58;1.10;;;;;;;-147.65;100.00;57646.63;10357862;28;20096;-83
2023/07/01 12:55:10;;;;;;;3.55;1.20;;;;;;;-147.65;100.00;57646.63;10360071;28;20069;-85
2023/07/01 13:00:12;;;;;;;2.97;1.57;;;;;;;-147.65;100.00;57646.63;10358961;28;20133;-85
2023/07/01 13:10:42;;;;;;;2.78;1.45;;;;;;;-147.65;100.00;57646.63;10347270;28;20042;-85
2023/07/01 13:15:46;;;;;;;4.07;2.03;;;;;;;-147.65;100.00;57646.63;10360517;28;20049;-80
2023/07/01 13:20:47;;;;;;;4.63;1.88;;;;;;;-147.65;100.00;57646.63;10362389;28;20077;-83
2023/07/01 13:25:48;;;;;;;2.70;1.77;;;;;;;-147.65;100.00;57646.63;10357974;28;20042;-83
2023/07/01 13:30:49;;;;;;;3.37;1.47;;;;;;;-147.65;100.00;57646.63;10361981;28;20042;-83
2023/07/01 13:35:53;;;;;;;5.60;2.40;;;;;;;-147.65;100.00;57646.63;10360176;28;20496;-82
2023/07/01 13:40:54;;;;;;;3.80;1.45;;;;;;;-147.65;100.00;57646.63;10358527;28;20042;-83
2023/07/01 13:45:54;;;;;;;6.17;2.30;;;;;;;-147.65;100.00;57646.63;10343281;28;20522;-83
2023/07/01 13:50:55;;;;;;;3.87;1.80;;;;;;;-147.65;100.00;57646.63;10359983;28;20046;-81
2023/07/01 13:55:57;;;;;;;3.27;1.63;;;;;;;-147.65;100.00;57646.63;10358790;28;20474;-80
2023/07/01 14:00:58;;;;;;;4.28;1.55;;;;;;;-147.65;100.00;57646.63;10360917;28;20131;-79
2023/07/01 14:05:58;;;;;;;2.50;1.63;;;;;;;-147.65;100.00;57646.63;10360667;28;20472;-83
2023/07/01 14:10:59;;;;;;;6.07;2.43;;;;;;;-147.65;100.00;57646.63;10359575;28;20034;-81
2023/07/01 14:15:59;;;;;;;7.60;3.20;;;;;;;-147.65;100.00;57646.63;10360194;28;20421;-81
2023/07/01 14:21:09;;;;;;;3.92;2.40;;;;;;;-147.65;100.00;57646.63;10352714;28;20426;-80
2023/07/01 14:26:25;;;;;;;2.45;1.50;;;;;;;-147.65;100.00;57646.63;10354226;28;20042;-86
2023/07/01 14:31:32;;;;;;;3.83;2.35;;;;;;;-147.65;100.00;57646.63;10379365;28;20049;-81
2023/07/01 14:36:42;;;;;;;2.63;1.77;;;;;;;-147.65;100.00;57646.63;10359267;28;20069;-78
2023/07/01 14:41:43;;;;;;;3.00;1.52;;;;;;;-147.65;100.00;57646.63;10358680;28;20042;-84
2023/07/01 14:46:43;;;;;;;3.90;1.38;;;;;;;-147.65;100.00;57646.63;10357640;28;20500;-84
2023/07/01 14:51:44;;;;;;;3.95;1.88;;;;;;;-147.65;100.00;57646.63;10359144;28;20135;-84
2023/07/01 14:56:46;;;;;;;2.42;1.67;;;;;;;-147.65;100.00;57646.63;10361789;28;20037;-83
2023/07/01 15:01:47;;;;;;;8.23;2.47;;;;;;;-147.65;100.00;57646.63;10351202;28;20030;-83
2023/07/01 15:06:48;;;;;;;2.72;1.75;;;;;;;-147.65;100.00;57646.63;10366690;28;20224;-83
2023/07/01 15:11:48;;;;;;;3.50;1.90;;;;;;;-147.65;100.00;57646.63;10366687;28;20497;-82
2023/07/01 15:16:49;;;;;;;7.32;2.42;;;;;;;-147.65;100.00;57646.63;10345503;28;20046;-83
2023/07/01 15:21:49;;;;;;;5.40;2.97;;;;;;;-147.65;100.00;57646.63;10347289;28;20037;-82
2023/07/01 15:26:50;;;;;;;11.37;3.73;;;;;;;-147.65;100.00;57646.63;10366252;28;20050;-83
2023/07/01 15:31:51;;;;;;;5.07;3.03;;;;;;;-147.65;100.00;57646.63;10361493;28;20445;-85
2023/07/01 15:36:53;;;;;;;15.40;9.67;;;;;;;-147.65;100.00;57646.63;10357493;28;20078;-84
2023/07/01 15:41:53;;;;;;;;;;;;;;;-147.65;100.00;57646.63;10348547;28;20057;-82
2023/07/01 15:46:54;;;;;;;5.15;3.80;;;;;;;-147.65;100.00;57646.63;10355121;28;19932;-87
2023/07/01 15:51:54;;;;;;;11.00;4.83;;;;;;;-147.65;100.00;57646.63;10353557;28;20049;-79
2023/07/01 15:56:55;;;;;;;7.73;2.90;;;;;;;-147.65;100.00;57646.63;10346630;28;20121;-76
2023/07/01 16:01:56;;;;;;;6.22;3.70;;;;;;;-147.65;100.00;57646.63;10362796;28;20383;-74
2023/07/01 16:06:57;;;;;;;15.50;6.68;;;;;;;-147.65;100.00;57646.63;10362361;28;20375;-75
2023/07/01 16:11:57;;;;;;;10.63;5.43;;;;;;;-147.65;100.00;57646.63;10356567;28;20042;-75
2023/07/01 16:16:58;;;;;;;14.60;4.97;;;;;;;-147.65;100.00;57646.63;10361896;28;20393;-75
2023/07/01 16:22:00;;;;;;;5.72;3.70;;;;;;;-147.65;100.00;57646.63;10360913;28;20447;-75
2023/07/01 16:27:00;;;;;;;8.13;3.72;;;;;;;-147.65;100.00;57646.63;10361141;28;20045;-75
2023/07/01 16:32:01;;;;;;;7.55;4.72;;;;;;;-147.65;100.00;57646.63;10374580;28;20490;-74
2023/07/01 16:37:01;;;;;;;7.35;4.03;;;;;;;-147.65;100.00;57646.63;10343798;28;20038;-74
2023/07/01 16:42:02;;;;;;;6.88;3.75;;;;;;;-147.65;100.00;57646.63;10356343;28;20120;-74
2023/07/01 16:47:03;;;;;;;3.42;2.15;;;;;;;-147.65;100.00;57646.63;10340005;28;20040;-75
2023/07/01 16:52:04;;;;;;;3.38;2.47;;;;;;;-147.65;100.00;57646.63;10358478;28;20033;-75
2023/07/01 16:57:06;;;;;;;6.43;3.13;;;;;;;-147.65;100.00;57646.63;10363974;28;20049;-75
2023/07/01 17:02:25;;;;;;;;;;;;;;;-147.65;100.00;57646.63;10359952;28;20038;-75
2023/07/01 17:07:25;;;;;;;4.35;2.83;;;;;;;-147.65;100.00;57646.63;10354908;28;21303;-74
2023/07/01 17:12:29;;;;;;;10.40;4.35;;;;;;;-147.65;100.00;57646.63;10350923;28;20053;-75
2023/07/01 17:17:32;;;;;;;8.80;3.97;;;;;;;-147.65;100.00;57646.63;10348151;28;20045;-75
2023/07/01 17:22:33;;;;;;;4.93;3.58;;;;;;;-147.65;100.00;57646.63;10360683;28;20048;-74
2023/07/01 17:27:34;;;;;;;5.13;3.03;;;;;;;-147.65;100.00;57646.63;10354461;28;20056;-75
2023/07/01 17:32:35;;;;;;;3.65;2.70;;;;;;;-147.65;100.00;57646.63;10358244;28;20467;-74
2023/07/01 17:37:35;;;;;;;265.25;185.40;;;;;;;-147.65;100.00;57646.63;10370707;28;20045;-76
2023/07/01 17:42:36;;;;;;;31.75;24.05;;;;;;;-147.65;100.00;57646.63;10356827;28;20042;-74
2023/07/01 17:47:36;;;;;;;6.85;5.20;;;;;;;-147.65;100.00;57646.63;10354374;28;20042;-84
2023/07/01 17:52:37;;;;;;;7.88;4.88;;;;;;;-147.65;100.00;57646.63;10352146;28;20083;-85
2023/07/01 17:57:37;;;;;;;7.72;3.42;;;;;;;-147.65;100.00;57646.63;10336180;28;20041;-84
2023/07/01 18:02:38;;;;;;;4.50;3.13;;;;;;;-147.65;100.00;57646.63;10360553;28;20289;-83
2023/07/01 18:07:39;;;;;;;11.48;4.93;;;;;;;-147.65;100.00;57646.63;10353674;28;20050;-85
2023/07/01 18:12:41;;;;;;;6.47;4.90;;;;;;;-147.65;100.00;57646.63;10351251;28;20037;-81
2023/07/01 18:17:42;;;;;;;7.75;6.25;;;;;;;-147.65;100.00;57646.63;10357507;28;20056;-81
2023/07/01 18:22:44;;;;;;;10.55;7.07;;;;;;;-147.65;100.00;57646.63;10343925;28;20096;-81
2023/07/01 18:27:45;;;;;;;7.85;6.32;;;;;;;-147.65;100.00;57646.63;10344059;28;20492;-82
2023/07/01 18:32:45;;;;;;;12.18;7.32;;;;;;;-147.65;100.00;57646.63;10358857;28;20052;-82
2023/07/01 18:37:46;;;;;;;12.27;6.38;;;;;;;-147.65;100.00;57646.63;10359246;28;20424;-81
2023/07/01 18:42:46;;;;;;;9.40;5.15;;;;;;;-147.65;100.00;57646.63;10322712;28;20042;-81
2023/07/01 18:47:47;;;;;;;10.57;6.45;;;;;;;-147.65;100.00;57646.63;10357609;28;20061;-79
2023/07/01 18:52:47;;;;;;;9.50;4.85;;;;;;;-147.65;100.00;57646.63;10359781;28;20103;-82
2023/07/01 18:57:48;;;;;;;5.38;4.32;;;;;;;-147.65;100.00;57646.63;10357738;28;20371;-82
2023/07/01 19:02:48;;;;;;;6.82;4.22;;;;;;;-147.65;100.00;57646.63;10357259;28;20042;-82
2023/07/01 19:07:49;;;;;;;8.82;4.30;;;;;;;-147.65;100.00;57646.63;10357801;28;20056;-81
2023/07/01 19:12:49;;;;;;;7.38;4.60;;;;;;;-147.65;100.00;57646.63;10340893;28;20049;-81
2023/07/01 19:17:50;;;;;;;6.68;5.07;;;;;;;-147.65;100.00;57646.63;10357647;28;20042;-82
2023/07/01 19:22:51;;;;;;;6.00;4.10;;;;;;;-147.65;100.00;57646.63;10357862;28;20038;-82
2023/07/01 19:27:51;;;;;;;5.68;4.35;;;;;;;-147.65;100.00;57646.63;10358872;28;20061;-81
2023/07/01 19:32:52;;;;;;;6.93;4.78;;;;;;;-147.65;100.00;57646.63;10357791;28;20061;-82
2023/07/01 19:37:53;;;;;;;8.68;5.22;;;;;;;-147.65;100.00;57646.63;10358396;28;20039;-81
2023/07/01 19:42:53;;;;;;;9.82;6.15;;;;;;;-147.65;100.00;57646.63;10358918;28;20072;-82
2023/07/01 19:47:54;;;;;;;15.93;4.65;;;;;;;-147.65;100.00;57646.63;10345188;28;20073;-82
2023/07/01 19:52:54;;;;;;;5.90;4.57;;;;;;;-147.65;100.00;57646.63;10364570;28;20494;-82
2023/07/01 19:57:55;;;;;;;6.75;3.83;;;;;;;-147.65;100.00;57646.63;10363639;28;20158;-81
2023/07/01 20:02:55;;;;;;;7.15;4.43;;;;;;;-147.65;100.00;57646.63;10364431;28;20044;-82
2023/07/01 20:07:56;;;;;;;6.30;4.97;;;;;;;-147.65;100.00;57646.63;10363824;28;20046;-82
2023/07/01 20:12:58;;;;;;;6.55;4.20;;;;;;;-147.65;100.00;57646.63;10365523;28;20042;-81
2023/07/01 20:17:59;;;;;;;7.07;4.25;;;;;;;-147.65;100.00;57646.63;10362657;28;20038;-82
2023/07/01 20:23:00;;;;;;;7.00;5.17;;;;;;;-147.65;100.00;57646.63;10362410;28;20042;-82
2023/07/01 20:28:01;;;;;;;6.30;4.45;;;;;;;-147.65;100.00;57646.63;10346527;28;20034;-82
2023/07/01 20:33:01;;;;;;;8.05;4.50;;;;;;;-147.65;100.00;57646.63;10363728;28;20037;-82
2023/07/01 20:38:02;;;;;;;11.13;4.43;;;;;;;-147.65;100.00;57646.63;10364397;28;20556;-82
2023/07/01 20:43:02;;;;;;;6.78;3.63;;;;;;;-147.65;100.00;57646.63;10363647;28;20034;-82
2023/07/01 20:48:03;;;;;;;6.70;4.75;;;;;;;-147.65;100.00;57646.63;10361957;28;20112;-81
2023/07/01 20:53:04;;;;;;;6.00;3.22;;;;;;;-147.65;100.00;57646.63;10364166;28;20048;-81
2023/07/01 20:58:04;;;;;;;10.55;6.57;;;;;;;-147.65;100.00;57646.63;10362369;28;20795;-80
2023/07/01 21:03:05;;;;;;;17.42;11.98;;;;;;;-147.65;100.00;57646.63;10363706;28;20034;-82
2023/07/01 21:08:05;;;;;;;11.77;7.63;;;;;;;-147.65;100.00;57646.63;10332746;28;20033;-83
2023/07/01 21:13:06;;;;;;;8.82;4.35;;;;;;;-147.65;100.00;57646.63;10361153;28;20156;-83
2023/07/01 21:18:06;;;;;;;7.13;5.53;;;;;;;-147.65;100.00;57646.63;10360196;28;20037;-83
2023/07/01 21:23:07;;;;;;;12.63;4.93;;;;;;;-147.65;100.00;57646.63;10362306;28;20576;-82
2023/07/01 21:28:08;;;;;;;9.32;4.80;;;;;;;-147.65;100.00;57646.63;10362696;28;20094;-81
2023/07/01 21:33:08;;;;;;;6.25;3.65;;;;;;;-147.65;100.00;57646.63;10361303;28;20074;-81
2023/07/01 21:38:09;;;;;;;5.72;4.05;;;;;;;-147.65;100.00;57646.63;10342920;28;20065;-82
2023/07/01 21:43:21;;;;;;;7.15;3.92;;;;;;;-147.65;100.00;57646.63;10360235;28;20038;-82
2023/07/01 21:48:23;;;;;;;7.13;4.43;;;;;;;-147.65;100.00;57646.63;10360319;28;20044;-82
2023/07/01 21:53:37;;;;;;;7.80;4.88;;;;;;;-147.65;100.00;57646.63;10344590;28;20470;-85
2023/07/01 21:58:38;;;;;;;11.20;5.85;;;;;;;-147.65;100.00;57646.63;10357608;28;20049;-85
2023/07/01 22:03:40;;;;;;;12.10;4.25;;;;;;;-147.65;100.00;57646.63;10341037;28;20033;-89
2023/07/01 22:08:41;;;;;;;9.57;7.30;;;;;;;-147.65;100.00;57646.63;10331381;28;20153;-87
2023/07/01 22:13:43;;;;;;;9.23;5.97;;;;;;;-147.65;100.00;57646.63;10356255;28;20433;-87
2023/07/01 22:18:43;;;;;;;7.68;5.05;;;;;;;-147.65;100.00;57646.63;10325429;28;20045;-88
2023/07/01 22:23:44;;;;;;;5.70;4.20;;;;;;;-147.65;100.00;57646.63;10345998;28;20466;-88
2023/07/01 22:28:44;;;;;;;8.05;5.35;;;;;;;-147.65;100.00;57646.63;10350953;28;20046;-88
2023/07/01 22:33:45;;;;;;;8.85;4.22;;;;;;;-147.65;100.00;57646.63;10357403;28;20037;-88
2023/07/01 22:38:45;;;;;;;12.55;5.60;;;;;;;-147.65;100.00;57646.63;10331408;28;20045;-89
2023/07/01 22:43:46;;;;;;;10.85;4.90;;;;;;;-147.65;100.00;57646.63;10344757;28;20035;-84